Ruston, LA

8:23 PM CDT on April 24, 2015 (GMT -0500)
Eureka | | Change Station
CLOSE
Current Station
Personal Weather Station
Location: Downsville, LA
Elevation: 187 ft
Nearby Weather Stations
Active Advisory: Tornado Watch

Elev 187 ft 32.57 °N, 92.36 °W | Updated 6 minutes ago

Overcast
Overcast
68.4 °F
Feels Like 68.4 °F
N
4.7
Wind Variable Wind from SE

Today
High -- | Low -- °F
--% Chance of Precip.
Yesterday
High -- | Low -- °F
Precip. -- in
6:31 AM 7:46 PM
Waxing Crescent, 41% visible
Pressure 29.74 in
Visibility 5.0 miles
Clouds Overcast 1500 ft
Dew Point 68 °F
Humidity 99%
Rainfall 1.44 in
Snow Depth Not available.
UV 0 out of 12
Pollen 2.90 out of 12
Air Quality Not available.
Flu Activity Sporadic
SPECI KMLU 250109Z 05007KT 5SM TSRA BR OVC015 22/21 A2974 RMK AO2 LTG DSNT ALQDS TSB03 P0004 T02170206

More Conditions Fewer Conditions

Pressure 29.74 in
Visibility 5.0 miles
Clouds Overcast 1500 ft
Dew Point 68 °F
Humidity 99%
Rainfall 1.44 in
Snow Depth Not available.
UV 0 out of 12
Pollen 2.90 out of 12
Air Quality Not available.
Flu Activity Sporadic
SPECI KMLU 250109Z 05007KT 5SM TSRA BR OVC015 22/21 A2974 RMK AO2 LTG DSNT ALQDS TSB03 P0004 T02170206

More Conditions Fewer Conditions

There is an enhanced risk of severe weather for parts of Texas, Louisiana, southern Arkansas, and Kansas. A slight risk of severe weather encompasses a wide area of the Plains and Lower Mississippi Valley as well. This means severe thunderstorms will be capable of producing strong wind, large hail, heavy rain, and the possibility of tornadoes into the evening.

Nowcast | as of 7:20 PM CDT on April 24, 2015

Until 10 PM CDT...

Showers and thunderstorms willl continued throughout the night...these storms are expected to remain strong while crossing into our weather forecast office...these storms are capable of producing strong winds 50 mph or greater and hail.Movement will be to the east northeast near 45 mph.

×

10-Day Weather Forecast

Almanac

Astronomy

Apr. 24, 2015 Rise Set
Actual Time
Civil Twilight
Nautical Twilight
Astronomical Twilight
Moon
Length of Visible Light
Length of Day
Tomorrow will be .
, % of the Moon is Illuminated

Today's Extremes

State Highs State Lows

Community

WunderPhotos

Upload Photos

1,816,544 photos uploaded!

WunderBlogs® & News

Nearby

Air Quality

  Air Quality AQ Index Pollutant
Not available.

Snow Depth

Station Depth Elevation

Earthquake Activity

City Distance Mag. Time & Date
Minimum magnitude displayed is 2.5.

Coastal Water Temperatures

Place Temperature

Stations

Nearby Weather Stations

Station Location Temp. Windchill Dew Point Humidity Wind Precip. Elev Updated Type
                   
Tornado Watch
Statement as of 7:03 PM CDT on April 24, 2015

Tornado Watch 103 remains in effect until 1000 PM CDT for the
following locations

La
. Louisiana parishes included are

Bienville Bossier Caddo
Claiborne De Soto Jackson
Lincoln Natchitoches Red River
Sabine Union Webster
Winn